Terminal Aerodrome Forecast
Issued by NWS

Home | Current Version | Previous Version | Text Only | Print | Product List | Glossary On
Versions: 1 2 3 4 5 6 7 8 9 10 11 12 13 14 15 16 17 18 19 20 21 22
000
FTUS44 KHGX 291725
TAFLBX
TAF
KLBX 291725Z 2918/3018 13009KT P6SM SCT025 BKN170
     FM300000 14006KT P6SM FEW040 SCT250
     FM300900 15003KT 4SM BR BKN250
      TEMPO 3009/3012 2SM BR BKN015
     FM301500 13004KT P6SM FEW020 BKN200=

USA.gov is the U.S. government's official web portal to all federal, state and local government web resources and services.